createdAt,value
2018-08-07T00:01:10.310Z,16.57
2018-08-07T00:07:05.305Z,17.19
2018-08-07T00:13:00.345Z,15.5
2018-08-07T00:18:55.297Z,16.05
2018-08-07T00:24:50.335Z,15.94
2018-08-07T00:30:45.314Z,16.09
2018-08-07T00:36:40.374Z,14.89
2018-08-07T00:42:35.368Z,14.39
2018-08-07T00:48:30.332Z,14.46
2018-08-07T00:54:25.366Z,15.43
2018-08-07T01:00:20.369Z,17.15
2018-08-07T01:06:15.357Z,17.43
2018-08-07T01:12:10.357Z,17.93
2018-08-07T01:18:05.371Z,16.31
2018-08-07T01:24:00.361Z,16.92
2018-08-07T01:29:55.371Z,16.94
2018-08-07T01:35:50.378Z,16.46
2018-08-07T01:41:45.482Z,15.96
2018-08-07T01:47:40.366Z,16.96
2018-08-07T01:53:35.427Z,17.16
2018-08-07T01:59:30.399Z,17.02
2018-08-07T02:05:25.446Z,16.63
2018-08-07T02:11:20.430Z,16.19
2018-08-07T02:17:15.386Z,17.15
2018-08-07T02:23:10.396Z,16.19
2018-08-07T02:29:05.507Z,17.27
2018-08-07T02:35:00.405Z,16.72
2018-08-07T02:40:55.451Z,17.19
2018-08-07T02:46:50.404Z,17.45
2018-08-07T02:52:45.436Z,17.05
2018-08-07T02:58:40.419Z,18.05
2018-08-07T03:04:35.419Z,17.6
2018-08-07T03:10:30.433Z,18.99
2018-08-07T03:16:25.427Z,18.22
2018-08-07T03:22:20.425Z,17.81
2018-08-07T03:28:15.428Z,18.36
2018-08-07T03:34:10.448Z,16.74
2018-08-07T03:40:05.456Z,17.66
2018-08-07T03:46:00.449Z,15.79
2018-08-07T03:51:55.443Z,18.21
2018-08-07T03:57:50.469Z,18.49
2018-08-07T04:03:45.477Z,17.3
2018-08-07T04:09:40.470Z,17.52
2018-08-07T04:15:35.536Z,18.18
2018-08-07T04:21:30.486Z,18.03
2018-08-07T04:27:25.470Z,17.74
2018-08-07T04:33:20.504Z,18.07
2018-08-07T04:39:15.458Z,17.33
2018-08-07T04:45:10.504Z,17.98
2018-08-07T04:51:05.522Z,17.21
2018-08-07T04:57:00.488Z,17.17
2018-08-07T05:02:55.505Z,15.67
2018-08-07T05:08:50.540Z,17.45
2018-08-07T05:14:45.510Z,24.45
2018-08-07T05:20:40.563Z,29.3
2018-08-07T05:26:35.521Z,24.83
2018-08-07T05:32:30.604Z,21.9
2018-08-07T05:38:25.489Z,21.01
2018-08-07T05:44:20.524Z,19.3
2018-08-07T05:50:15.667Z,18.19
2018-08-07T05:56:10.563Z,19.16
2018-08-07T06:02:05.556Z,17.67
2018-08-07T06:08:00.568Z,18.39
2018-08-07T06:13:55.537Z,16.72
2018-08-07T06:19:50.568Z,16.55
2018-08-07T06:25:45.587Z,16.53
2018-08-07T06:31:40.683Z,17.2
2018-08-07T06:37:35.535Z,16.76
2018-08-07T06:43:30.563Z,15.45
2018-08-07T06:49:25.576Z,15.44
2018-08-07T06:55:20.576Z,14.15
2018-08-07T07:01:15.564Z,15.71
2018-08-07T07:07:10.597Z,15.69
2018-08-07T07:13:05.615Z,15.49
2018-08-07T07:19:00.576Z,15.82
2018-08-07T07:24:55.577Z,15.16
2018-08-07T07:30:50.585Z,15.12
2018-08-07T07:36:45.609Z,15.97
2018-08-07T07:42:40.613Z,15.84
2018-08-07T07:48:35.603Z,15.92
2018-08-07T07:54:30.631Z,14.98
2018-08-07T08:00:25.600Z,15.4
2018-08-07T08:06:20.609Z,14.64
2018-08-07T08:12:15.629Z,15
2018-08-07T08:18:10.615Z,16.27
2018-08-07T08:24:05.677Z,16.39
2018-08-07T08:30:00.701Z,16.41
2018-08-07T08:35:55.624Z,16.04
2018-08-07T08:41:50.653Z,14.64
2018-08-07T08:47:45.690Z,15.94
2018-08-07T08:53:40.656Z,15.13
2018-08-07T08:59:35.675Z,14.98
2018-08-07T09:05:30.681Z,14.41
2018-08-07T09:11:25.654Z,15.07
2018-08-07T09:17:20.672Z,14.7
2018-08-07T09:23:15.662Z,14.67
2018-08-07T09:29:10.680Z,14.88
2018-08-07T09:35:05.692Z,15.23
2018-08-07T09:41:00.678Z,14.71
2018-08-07T09:46:55.677Z,15.29
2018-08-07T09:52:50.670Z,14.5
2018-08-07T09:58:45.695Z,14.14
2018-08-07T10:04:40.697Z,14.1
2018-08-07T10:10:35.703Z,15.06
2018-08-07T10:16:30.684Z,13.01
2018-08-07T10:22:25.700Z,14.43
2018-08-07T10:28:20.697Z,14.52
2018-08-07T10:34:15.764Z,13.17
2018-08-07T10:40:10.714Z,13.44
2018-08-07T10:46:05.706Z,13.44
2018-08-07T10:52:00.766Z,13.46
2018-08-07T10:57:55.734Z,13.59
2018-08-07T11:03:50.711Z,13.74
2018-08-07T11:09:45.754Z,11.62
2018-08-07T11:15:40.710Z,10.18
2018-08-07T11:21:35.709Z,10.31
2018-08-07T11:27:30.729Z,10.13
2018-08-07T11:33:25.746Z,9.79
2018-08-07T11:39:20.730Z,10.57
2018-08-07T11:45:15.736Z,11.14
2018-08-07T11:51:10.781Z,10.09
2018-08-07T11:57:05.746Z,7.89
2018-08-07T12:03:00.747Z,7.83
2018-08-07T12:08:55.769Z,9.07
2018-08-07T12:14:50.765Z,9.04
2018-08-07T12:20:45.779Z,8.6
2018-08-07T12:26:40.800Z,8.57
2018-08-07T12:32:35.774Z,10.24
2018-08-07T12:38:30.776Z,10.98
2018-08-07T12:44:25.832Z,12.53
2018-08-07T12:50:20.813Z,12.83
2018-08-07T12:56:15.787Z,12.87
2018-08-07T13:02:10.836Z,10.94
2018-08-07T13:08:05.778Z,10.59
2018-08-07T13:14:00.828Z,9.06
2018-08-07T13:19:55.819Z,8.53
2018-08-07T13:25:50.838Z,8.07
2018-08-07T13:31:45.810Z,8
2018-08-07T13:37:40.808Z,7.37
2018-08-07T13:43:35.810Z,8.05
2018-08-07T13:49:30.835Z,7.67
2018-08-07T13:55:25.853Z,6.56
2018-08-07T14:01:20.838Z,6.83
2018-08-07T14:07:15.832Z,7.79
2018-08-07T14:13:10.902Z,7.5
2018-08-07T14:19:05.861Z,8.45
2018-08-07T14:25:00.890Z,9.02
2018-08-07T14:30:55.884Z,8.4
2018-08-07T14:36:50.949Z,8.71
2018-08-07T14:42:45.865Z,8.37
2018-08-07T14:48:40.865Z,7.2
2018-08-07T14:54:35.910Z,7.85
2018-08-07T15:00:31.028Z,7.44
2018-08-07T15:06:25.946Z,7.82
2018-08-07T15:12:20.898Z,8.55
2018-08-07T15:18:15.882Z,8.39
2018-08-07T15:24:10.899Z,6.9
2018-08-07T15:30:05.887Z,7.07
2018-08-07T15:36:00.941Z,6.87
2018-08-07T15:41:55.896Z,6.82
2018-08-07T15:47:50.935Z,6.44
2018-08-07T15:53:45.914Z,6.55
2018-08-07T15:59:40.901Z,6.3
2018-08-07T16:05:35.897Z,7.42
2018-08-07T16:11:30.984Z,7.14
2018-08-07T16:17:25.942Z,7.24
2018-08-07T16:23:20.923Z,8
2018-08-07T16:29:15.918Z,6.83
2018-08-07T16:35:10.929Z,7.55
2018-08-07T16:41:05.937Z,6.49
2018-08-07T16:47:00.966Z,6.35
2018-08-07T16:52:55.914Z,6.26
2018-08-07T16:58:50.949Z,6.31
2018-08-07T17:04:45.949Z,7.18
2018-08-07T17:10:40.995Z,8.14
2018-08-07T17:16:36.296Z,7.8
2018-08-07T17:22:30.970Z,6.3
2018-08-07T17:28:25.988Z,5.52
2018-08-07T17:34:20.945Z,4.3
2018-08-07T17:40:15.973Z,3.86
2018-08-07T17:46:11.009Z,3.03
2018-08-07T17:52:05.984Z,2.78
2018-08-07T17:58:00.976Z,3.25
2018-08-07T18:03:55.981Z,3.04
2018-08-07T18:09:50.985Z,3.47
2018-08-07T18:15:45.983Z,3.73
2018-08-07T18:21:41.009Z,3.98
2018-08-07T18:27:35.990Z,3.94
2018-08-07T18:33:31.014Z,4.38
2018-08-07T18:39:26.014Z,4.31
2018-08-07T18:45:21.031Z,4.72
2018-08-07T18:51:16.107Z,4.12
2018-08-07T18:57:11.050Z,4.94
2018-08-07T19:03:06.084Z,4.76
2018-08-07T19:09:01.028Z,4.89
2018-08-07T19:14:56.030Z,17.82
2018-08-07T19:20:51.039Z,14.35
2018-08-07T19:26:46.034Z,13.85
2018-08-07T19:32:41.063Z,12.1
2018-08-07T19:38:36.019Z,11.34
2018-08-07T19:44:31.032Z,10.97
2018-08-07T19:50:26.085Z,6.77
2018-08-07T19:56:21.055Z,4.29
2018-08-07T20:02:16.052Z,4.21
2018-08-07T20:08:11.082Z,3.48
2018-08-07T20:14:06.048Z,4.06
2018-08-07T20:20:01.112Z,3.68
2018-08-07T20:25:56.079Z,3.94
2018-08-07T20:31:51.093Z,3.82
2018-08-07T20:37:46.088Z,3.85
2018-08-07T20:43:41.082Z,3.48
2018-08-07T20:49:36.099Z,4.09
2018-08-07T20:55:31.111Z,3.6
2018-08-07T21:01:26.163Z,3.77
2018-08-07T21:07:21.122Z,3.32
2018-08-07T21:13:16.187Z,4.26
2018-08-07T21:19:11.099Z,4.04
2018-08-07T21:25:06.108Z,4.82
2018-08-07T21:31:01.175Z,4.18
2018-08-07T21:36:56.111Z,4.29
2018-08-07T21:42:51.137Z,4.03
2018-08-07T21:48:46.120Z,3.8
2018-08-07T21:54:41.116Z,4.26
2018-08-07T22:00:36.125Z,4.22
2018-08-07T22:06:31.146Z,4.62
2018-08-07T22:12:26.179Z,4.01
2018-08-07T22:18:21.161Z,4.93
2018-08-07T22:24:16.155Z,4.76
2018-08-07T22:30:11.148Z,4.53
2018-08-07T22:36:06.131Z,4.71
2018-08-07T22:42:01.142Z,4.98
2018-08-07T22:47:56.154Z,4.5
2018-08-07T22:53:51.154Z,4.8
2018-08-07T22:59:46.187Z,5.15
2018-08-07T23:05:41.206Z,4.63
2018-08-07T23:11:36.173Z,5.63
2018-08-07T23:17:31.182Z,4.45
2018-08-07T23:23:26.162Z,4.73
2018-08-07T23:29:21.214Z,5.02
2018-08-07T23:35:16.191Z,5.5
2018-08-07T23:41:11.190Z,5.44
2018-08-07T23:47:06.234Z,5.46
2018-08-07T23:53:01.217Z,4.6
2018-08-07T23:58:56.190Z,4.98
